sensor_id;sensor_type;location;lat;lon;timestamp;P1;durP1;ratioP1;P2;durP2;ratioP2
3046;SDS011;1533;44.816;20.420;2023-06-04T00:01:09;8.40;;;7.00;;
3046;SDS011;1533;44.816;20.420;2023-06-04T00:03:36;12.27;;;8.00;;
3046;SDS011;1533;44.816;20.420;2023-06-04T00:06:02;8.77;;;7.87;;
3046;SDS011;1533;44.816;20.420;2023-06-04T00:08:30;9.77;;;7.53;;
3046;SDS011;1533;44.816;20.420;2023-06-04T00:10:57;15.13;;;8.07;;
3046;SDS011;1533;44.816;20.420;2023-06-04T00:13:25;13.13;;;8.03;;
3046;SDS011;1533;44.816;20.420;2023-06-04T00:15:57;11.70;;;7.30;;
3046;SDS011;1533;44.816;20.420;2023-06-04T00:18:24;8.17;;;7.37;;
3046;SDS011;1533;44.816;20.420;2023-06-04T00:20:52;9.00;;;7.60;;
3046;SDS011;1533;44.816;20.420;2023-06-04T00:23:18;8.80;;;7.70;;
3046;SDS011;1533;44.816;20.420;2023-06-04T00:25:46;7.73;;;6.93;;
3046;SDS011;1533;44.816;20.420;2023-06-04T00:28:12;11.37;;;8.27;;
3046;SDS011;1533;44.816;20.420;2023-06-04T00:30:39;9.40;;;7.40;;
3046;SDS011;1533;44.816;20.420;2023-06-04T00:33:06;9.50;;;8.10;;
3046;SDS011;1533;44.816;20.420;2023-06-04T00:35:37;8.30;;;6.53;;
3046;SDS011;1533;44.816;20.420;2023-06-04T00:38:04;9.30;;;6.77;;
3046;SDS011;1533;44.816;20.420;2023-06-04T00:40:31;9.10;;;7.43;;
3046;SDS011;1533;44.816;20.420;2023-06-04T00:43:00;11.27;;;7.57;;
3046;SDS011;1533;44.816;20.420;2023-06-04T00:45:28;9.83;;;7.37;;
3046;SDS011;1533;44.816;20.420;2023-06-04T00:47:56;8.90;;;8.00;;
3046;SDS011;1533;44.816;20.420;2023-06-04T00:50:23;9.87;;;7.30;;
3046;SDS011;1533;44.816;20.420;2023-06-04T00:52:52;10.87;;;8.53;;
3046;SDS011;1533;44.816;20.420;2023-06-04T00:55:18;10.03;;;8.13;;
3046;SDS011;1533;44.816;20.420;2023-06-04T00:57:51;10.70;;;8.40;;
3046;SDS011;1533;44.816;20.420;2023-06-04T01:00:18;9.90;;;8.03;;
3046;SDS011;1533;44.816;20.420;2023-06-04T01:02:46;9.50;;;8.30;;
3046;SDS011;1533;44.816;20.420;2023-06-04T01:07:56;7.70;;;6.90;;
3046;SDS011;1533;44.816;20.420;2023-06-04T01:10:24;11.70;;;8.67;;
3046;SDS011;1533;44.816;20.420;2023-06-04T01:12:50;11.17;;;7.50;;
3046;SDS011;1533;44.816;20.420;2023-06-04T01:15:18;13.40;;;8.40;;
3046;SDS011;1533;44.816;20.420;2023-06-04T01:17:49;9.80;;;8.40;;
3046;SDS011;1533;44.816;20.420;2023-06-04T01:20:32;8.80;;;7.90;;
3046;SDS011;1533;44.816;20.420;2023-06-04T01:25:54;12.33;;;8.70;;
3046;SDS011;1533;44.816;20.420;2023-06-04T01:28:23;15.10;;;9.20;;
3046;SDS011;1533;44.816;20.420;2023-06-04T01:30:52;10.70;;;7.87;;
3046;SDS011;1533;44.816;20.420;2023-06-04T01:33:22;10.63;;;8.93;;
3046;SDS011;1533;44.816;20.420;2023-06-04T01:35:49;10.07;;;8.97;;
3046;SDS011;1533;44.816;20.420;2023-06-04T01:38:16;11.40;;;9.33;;
3046;SDS011;1533;44.816;20.420;2023-06-04T01:40:43;11.40;;;9.10;;
3046;SDS011;1533;44.816;20.420;2023-06-04T01:43:11;12.43;;;9.40;;
3046;SDS011;1533;44.816;20.420;2023-06-04T01:45:41;10.60;;;9.13;;
3046;SDS011;1533;44.816;20.420;2023-06-04T01:48:10;9.97;;;8.77;;
3046;SDS011;1533;44.816;20.420;2023-06-04T01:50:36;14.90;;;9.80;;
3046;SDS011;1533;44.816;20.420;2023-06-04T01:53:04;12.13;;;9.27;;
3046;SDS011;1533;44.816;20.420;2023-06-04T01:55:31;14.43;;;8.40;;
3046;SDS011;1533;44.816;20.420;2023-06-04T01:57:59;12.40;;;9.50;;
3046;SDS011;1533;44.816;20.420;2023-06-04T02:00:28;12.03;;;10.03;;
3046;SDS011;1533;44.816;20.420;2023-06-04T02:02:55;10.60;;;9.07;;
3046;SDS011;1533;44.816;20.420;2023-06-04T02:05:23;10.97;;;8.87;;
3046;SDS011;1533;44.816;20.420;2023-06-04T02:07:54;15.73;;;9.33;;
3046;SDS011;1533;44.816;20.420;2023-06-04T02:10:27;18.00;;;12.20;;
3046;SDS011;1533;44.816;20.420;2023-06-04T02:12:55;17.00;;;10.83;;
3046;SDS011;1533;44.816;20.420;2023-06-04T02:15:24;18.97;;;10.53;;
3046;SDS011;1533;44.816;20.420;2023-06-04T02:17:54;16.30;;;9.67;;
3046;SDS011;1533;44.816;20.420;2023-06-04T02:20:28;12.60;;;9.30;;
3046;SDS011;1533;44.816;20.420;2023-06-04T02:22:58;11.57;;;10.47;;
3046;SDS011;1533;44.816;20.420;2023-06-04T02:25:26;10.90;;;8.47;;
3046;SDS011;1533;44.816;20.420;2023-06-04T02:27:53;13.80;;;10.23;;
3046;SDS011;1533;44.816;20.420;2023-06-04T02:30:22;12.17;;;9.40;;
3046;SDS011;1533;44.816;20.420;2023-06-04T02:32:48;12.27;;;8.90;;
3046;SDS011;1533;44.816;20.420;2023-06-04T02:35:17;11.83;;;8.70;;
3046;SDS011;1533;44.816;20.420;2023-06-04T02:37:46;11.70;;;9.10;;
3046;SDS011;1533;44.816;20.420;2023-06-04T02:40:16;12.73;;;9.50;;
3046;SDS011;1533;44.816;20.420;2023-06-04T02:42:43;11.20;;;8.40;;
3046;SDS011;1533;44.816;20.420;2023-06-04T02:45:12;10.07;;;9.07;;
3046;SDS011;1533;44.816;20.420;2023-06-04T02:47:39;11.30;;;8.77;;
3046;SDS011;1533;44.816;20.420;2023-06-04T02:50:05;10.27;;;8.60;;
3046;SDS011;1533;44.816;20.420;2023-06-04T02:52:32;14.97;;;8.63;;
3046;SDS011;1533;44.816;20.420;2023-06-04T02:55:06;10.60;;;9.03;;
3046;SDS011;1533;44.816;20.420;2023-06-04T02:57:35;11.33;;;8.77;;
3046;SDS011;1533;44.816;20.420;2023-06-04T03:00:02;11.00;;;8.93;;
3046;SDS011;1533;44.816;20.420;2023-06-04T03:02:38;14.23;;;10.57;;
3046;SDS011;1533;44.816;20.420;2023-06-04T03:05:11;14.60;;;11.20;;
3046;SDS011;1533;44.816;20.420;2023-06-04T03:07:41;12.10;;;9.83;;
3046;SDS011;1533;44.816;20.420;2023-06-04T03:10:13;13.50;;;8.80;;
3046;SDS011;1533;44.816;20.420;2023-06-04T03:12:40;11.73;;;9.17;;
3046;SDS011;1533;44.816;20.420;2023-06-04T03:15:07;18.57;;;10.43;;
3046;SDS011;1533;44.816;20.420;2023-06-04T03:17:36;10.93;;;9.70;;
3046;SDS011;1533;44.816;20.420;2023-06-04T03:20:04;17.73;;;11.60;;
3046;SDS011;1533;44.816;20.420;2023-06-04T03:22:32;18.33;;;11.30;;
3046;SDS011;1533;44.816;20.420;2023-06-04T03:25:04;13.50;;;9.37;;
3046;SDS011;1533;44.816;20.420;2023-06-04T03:27:32;13.83;;;10.50;;
3046;SDS011;1533;44.816;20.420;2023-06-04T03:30:00;15.83;;;9.20;;
3046;SDS011;1533;44.816;20.420;2023-06-04T03:32:30;12.00;;;8.50;;
3046;SDS011;1533;44.816;20.420;2023-06-04T03:34:57;10.30;;;8.53;;
3046;SDS011;1533;44.816;20.420;2023-06-04T03:37:26;9.90;;;8.27;;
3046;SDS011;1533;44.816;20.420;2023-06-04T03:39:53;12.47;;;9.10;;
3046;SDS011;1533;44.816;20.420;2023-06-04T03:42:20;9.97;;;8.87;;
3046;SDS011;1533;44.816;20.420;2023-06-04T03:44:47;10.20;;;9.07;;
3046;SDS011;1533;44.816;20.420;2023-06-04T03:47:14;12.57;;;8.30;;
3046;SDS011;1533;44.816;20.420;2023-06-04T03:49:43;13.57;;;9.20;;
3046;SDS011;1533;44.816;20.420;2023-06-04T03:52:11;9.37;;;8.17;;
3046;SDS011;1533;44.816;20.420;2023-06-04T03:54:38;13.67;;;8.10;;
3046;SDS011;1533;44.816;20.420;2023-06-04T03:57:05;10.60;;;8.27;;
3046;SDS011;1533;44.816;20.420;2023-06-04T03:59:32;11.73;;;8.23;;
3046;SDS011;1533;44.816;20.420;2023-06-04T23:13:45;8.77;;;5.80;;
3046;SDS011;1533;44.816;20.420;2023-06-04T23:16:14;6.93;;;5.47;;
3046;SDS011;1533;44.816;20.420;2023-06-04T23:18:48;8.97;;;6.70;;
3046;SDS011;1533;44.816;20.420;2023-06-04T23:21:15;8.10;;;6.17;;
3046;SDS011;1533;44.816;20.420;2023-06-04T23:23:49;6.90;;;6.20;;
3046;SDS011;1533;44.816;20.420;2023-06-04T23:26:19;6.80;;;6.00;;
3046;SDS011;1533;44.816;20.420;2023-06-04T23:28:51;6.77;;;5.77;;
3046;SDS011;1533;44.816;20.420;2023-06-04T23:31:20;8.23;;;6.40;;
3046;SDS011;1533;44.816;20.420;2023-06-04T23:33:47;7.30;;;5.73;;
3046;SDS011;1533;44.816;20.420;2023-06-04T23:36:13;8.17;;;6.27;;
3046;SDS011;1533;44.816;20.420;2023-06-04T23:38:42;7.83;;;6.37;;
3046;SDS011;1533;44.816;20.420;2023-06-04T23:41:08;7.37;;;5.93;;
3046;SDS011;1533;44.816;20.420;2023-06-04T23:43:36;8.50;;;6.20;;
3046;SDS011;1533;44.816;20.420;2023-06-04T23:46:03;6.67;;;5.57;;
3046;SDS011;1533;44.816;20.420;2023-06-04T23:48:33;8.10;;;6.10;;
3046;SDS011;1533;44.816;20.420;2023-06-04T23:51:04;7.43;;;5.93;;
3046;SDS011;1533;44.816;20.420;2023-06-04T23:53:37;8.43;;;6.80;;
3046;SDS011;1533;44.816;20.420;2023-06-04T23:56:14;7.70;;;6.00;;
3046;SDS011;1533;44.816;20.420;2023-06-04T23:58:41;8.03;;;6.40;;
